Aviation Digital Data Service (ADDS)

Output produced by METARs form (1142 UTC 23 October 2014)
found at http://www.aviationweather.gov/adds/metars/
 
KEWR 231124Z 2312/2418 35018G27KT P6SM VCSH SCT015 BKN025 
     TEMPO 2312/2315 5SM -SHRA BKN015 
     FM231500 34017G26KT P6SM VCSH BKN025 BKN040 
     FM232200 33014G23KT P6SM BKN040 BKN080 
     FM240300 33013G19KT P6SM BKN050 BKN080 
     FM240800 33010KT P6SM BKN050 BKN080 
     FM241300 33012G19KT P6SM BKN050 BKN080